메인 페이지
METAR-TAF:

METAR-TAF

공항 :

쿠웨이트 국제공항

쿠웨이트, 쿠웨이트

위도: 29-13N, 경도: 047-59E, 고도: 55m

현재 날씨관측

예보는 47분 전, 09:00시(UTC)에 발표되었습니다.
16kt
온도 33°C
습도 34%
기압 1015 hPa
시정: 5000m
(약한) 연무

METAR: OKBK 150900Z 08016KT 5000 -HZ NSC 33/15 Q1015 NOSIG

시각: 12:47 (09:47 UTC)

예보

예보는 5 시간 2분 전, 04:45시(UTC)에 발표되었습니다.
예보 대상 시간: 15일 06시부터 16일 12시까지 (UTC)
8kt
시정: 7000m
일시적
15일 06시부터 15일 12시까지 (UTC)
여러 방향의 바람 3kt
시정: 3000m

TAF: OKBK 150445Z 1506/1612 18008KT 7000 NSC TEMPO 1506/1512 VRB03KT 3000 BR/HZ

4,000개 이상의 공항 관측 자료 및 예보 (METAR 및 TAF 보고).

지도상에서 검색 가능한 기상관측소가 노란 점과 빨간 점으로 표시되어 있습니다.

기상관측소 명을 보려면 표시 위로 마우스를 이동하세요.

날씨 관측과 예보를 보려면 클릭하세요.

지도 변경 : 확대하려면 엑스 표시가 있는 녹색 버튼, 축소하려면 빼기 표시가 있는 녹색 버튼, 다음 페이지의 지도를 보려면 녹색 화살표를 클릭하세요.


METAR-TAF: